sensor_id;sensor_type;location;lat;lon;timestamp;temperature;humidity
18882;DHT22;9573;50.948;11.600;2022-09-02T00:02:16;12.10;99.90
18882;DHT22;9573;50.948;11.600;2022-09-02T00:04:43;12.00;99.90
18882;DHT22;9573;50.948;11.600;2022-09-02T00:07:12;12.00;99.90
18882;DHT22;9573;50.948;11.600;2022-09-02T00:09:39;12.00;99.90
18882;DHT22;9573;50.948;11.600;2022-09-02T00:12:07;12.00;99.90
18882;DHT22;9573;50.948;11.600;2022-09-02T00:14:37;12.00;99.90
18882;DHT22;9573;50.948;11.600;2022-09-02T00:17:04;12.00;99.90
18882;DHT22;9573;50.948;11.600;2022-09-02T00:19:32;12.00;99.90
18882;DHT22;9573;50.948;11.600;2022-09-02T00:22:01;12.00;99.90
18882;DHT22;9573;50.948;11.600;2022-09-02T00:24:30;12.00;99.90
18882;DHT22;9573;50.948;11.600;2022-09-02T00:26:58;12.00;99.90
18882;DHT22;9573;50.948;11.600;2022-09-02T00:29:26;12.00;99.90
18882;DHT22;9573;50.948;11.600;2022-09-02T00:31:54;12.00;99.90
18882;DHT22;9573;50.948;11.600;2022-09-02T00:34:21;12.00;99.90
18882;DHT22;9573;50.948;11.600;2022-09-02T00:36:48;12.00;99.90
18882;DHT22;9573;50.948;11.600;2022-09-02T00:39:16;12.00;99.90
18882;DHT22;9573;50.948;11.600;2022-09-02T00:41:44;12.00;99.90
18882;DHT22;9573;50.948;11.600;2022-09-02T00:44:14;12.00;99.90
18882;DHT22;9573;50.948;11.600;2022-09-02T00:46:42;12.10;99.90
18882;DHT22;9573;50.948;11.600;2022-09-02T00:49:14;12.00;99.90
18882;DHT22;9573;50.948;11.600;2022-09-02T00:51:46;12.00;99.90
18882;DHT22;9573;50.948;11.600;2022-09-02T00:54:16;12.00;99.90
18882;DHT22;9573;50.948;11.600;2022-09-02T00:56:47;11.90;99.90
18882;DHT22;9573;50.948;11.600;2022-09-02T00:59:21;11.90;99.90
18882;DHT22;9573;50.948;11.600;2022-09-02T01:01:50;11.90;99.90
18882;DHT22;9573;50.948;11.600;2022-09-02T01:04:17;11.90;99.90
18882;DHT22;9573;50.948;11.600;2022-09-02T01:06:44;11.80;99.90
18882;DHT22;9573;50.948;11.600;2022-09-02T01:09:14;11.80;99.90
18882;DHT22;9573;50.948;11.600;2022-09-02T01:11:44;11.70;99.90
18882;DHT22;9573;50.948;11.600;2022-09-02T01:14:18;11.70;99.90
18882;DHT22;9573;50.948;11.600;2022-09-02T01:16:47;11.70;99.90
18882;DHT22;9573;50.948;11.600;2022-09-02T01:19:20;11.60;99.90
18882;DHT22;9573;50.948;11.600;2022-09-02T01:21:51;11.60;99.90
18882;DHT22;9573;50.948;11.600;2022-09-02T01:24:20;11.60;99.90
18882;DHT22;9573;50.948;11.600;2022-09-02T01:26:51;11.50;99.90
18882;DHT22;9573;50.948;11.600;2022-09-02T01:29:19;11.50;99.90
18882;DHT22;9573;50.948;11.600;2022-09-02T01:31:47;11.40;99.90
18882;DHT22;9573;50.948;11.600;2022-09-02T01:34:14;11.40;99.90
18882;DHT22;9573;50.948;11.600;2022-09-02T01:36:43;11.40;99.90
18882;DHT22;9573;50.948;11.600;2022-09-02T01:39:13;11.30;99.90
18882;DHT22;9573;50.948;11.600;2022-09-02T01:41:40;11.30;99.90
18882;DHT22;9573;50.948;11.600;2022-09-02T01:44:08;11.20;99.90
18882;DHT22;9573;50.948;11.600;2022-09-02T01:46:36;11.20;99.90
18882;DHT22;9573;50.948;11.600;2022-09-02T01:49:03;11.20;99.90
18882;DHT22;9573;50.948;11.600;2022-09-02T01:51:31;11.10;99.90
18882;DHT22;9573;50.948;11.600;2022-09-02T01:53:58;11.10;99.90
18882;DHT22;9573;50.948;11.600;2022-09-02T01:56:26;11.10;99.90
18882;DHT22;9573;50.948;11.600;2022-09-02T01:58:54;11.10;99.90
18882;DHT22;9573;50.948;11.600;2022-09-02T02:01:21;11.10;99.90
18882;DHT22;9573;50.948;11.600;2022-09-02T02:03:48;11.00;99.90
18882;DHT22;9573;50.948;11.600;2022-09-02T02:06:16;11.00;99.90
18882;DHT22;9573;50.948;11.600;2022-09-02T02:08:43;11.00;99.90
18882;DHT22;9573;50.948;11.600;2022-09-02T02:11:11;10.90;99.90
18882;DHT22;9573;50.948;11.600;2022-09-02T02:13:45;10.90;99.90
18882;DHT22;9573;50.948;11.600;2022-09-02T02:16:12;10.90;99.90
18882;DHT22;9573;50.948;11.600;2022-09-02T02:18:39;10.90;99.90
18882;DHT22;9573;50.948;11.600;2022-09-02T02:21:07;10.90;99.90
18882;DHT22;9573;50.948;11.600;2022-09-02T02:23:34;10.80;99.90
18882;DHT22;9573;50.948;11.600;2022-09-02T02:26:02;10.80;99.90
18882;DHT22;9573;50.948;11.600;2022-09-02T02:28:29;10.80;99.90
18882;DHT22;9573;50.948;11.600;2022-09-02T02:30:58;10.80;99.90
18882;DHT22;9573;50.948;11.600;2022-09-02T02:33:26;10.80;99.90
18882;DHT22;9573;50.948;11.600;2022-09-02T02:35:54;10.80;99.90
18882;DHT22;9573;50.948;11.600;2022-09-02T02:38:22;10.80;99.90
18882;DHT22;9573;50.948;11.600;2022-09-02T02:40:53;10.80;99.90
18882;DHT22;9573;50.948;11.600;2022-09-02T02:43:22;10.80;99.90
18882;DHT22;9573;50.948;11.600;2022-09-02T02:45:49;10.70;99.90
18882;DHT22;9573;50.948;11.600;2022-09-02T02:48:18;10.70;99.90
18882;DHT22;9573;50.948;11.600;2022-09-02T02:50:45;10.60;99.90
18882;DHT22;9573;50.948;11.600;2022-09-02T02:53:12;10.60;99.90
18882;DHT22;9573;50.948;11.600;2022-09-02T02:55:42;10.60;99.90
18882;DHT22;9573;50.948;11.600;2022-09-02T02:58:09;10.60;99.90
18882;DHT22;9573;50.948;11.600;2022-09-02T03:00:37;10.60;99.90
18882;DHT22;9573;50.948;11.600;2022-09-02T03:03:05;10.60;99.90
18882;DHT22;9573;50.948;11.600;2022-09-02T03:05:36;10.50;99.90
18882;DHT22;9573;50.948;11.600;2022-09-02T03:08:05;10.50;99.90
18882;DHT22;9573;50.948;11.600;2022-09-02T03:10:35;10.50;99.90
18882;DHT22;9573;50.948;11.600;2022-09-02T03:13:03;10.40;99.90
18882;DHT22;9573;50.948;11.600;2022-09-02T03:15:31;10.40;99.90
18882;DHT22;9573;50.948;11.600;2022-09-02T03:17:58;10.40;99.90
18882;DHT22;9573;50.948;11.600;2022-09-02T03:20:25;10.30;99.90
18882;DHT22;9573;50.948;11.600;2022-09-02T03:22:56;10.40;99.90
18882;DHT22;9573;50.948;11.600;2022-09-02T03:25:25;10.30;99.90
18882;DHT22;9573;50.948;11.600;2022-09-02T03:27:54;10.30;99.90
18882;DHT22;9573;50.948;11.600;2022-09-02T03:30:23;10.30;99.90
18882;DHT22;9573;50.948;11.600;2022-09-02T03:32:53;10.30;99.90
18882;DHT22;9573;50.948;11.600;2022-09-02T03:35:21;10.30;99.90
18882;DHT22;9573;50.948;11.600;2022-09-02T03:37:50;10.30;99.90
18882;DHT22;9573;50.948;11.600;2022-09-02T03:40:21;10.30;99.90
18882;DHT22;9573;50.948;11.600;2022-09-02T03:42:50;10.30;99.90
18882;DHT22;9573;50.948;11.600;2022-09-02T03:45:19;10.20;99.90
18882;DHT22;9573;50.948;11.600;2022-09-02T03:47:47;10.20;99.90
18882;DHT22;9573;50.948;11.600;2022-09-02T03:50:19;10.20;99.90
18882;DHT22;9573;50.948;11.600;2022-09-02T03:52:48;10.20;99.90
18882;DHT22;9573;50.948;11.600;2022-09-02T03:55:16;10.10;99.90
18882;DHT22;9573;50.948;11.600;2022-09-02T03:57:45;10.10;99.90
18882;DHT22;9573;50.948;11.600;2022-09-02T04:00:15;10.10;99.90
18882;DHT22;9573;50.948;11.600;2022-09-02T04:02:43;10.10;99.90
18882;DHT22;9573;50.948;11.600;2022-09-02T04:05:11;10.00;99.90
18882;DHT22;9573;50.948;11.600;2022-09-02T04:07:39;10.10;99.90
18882;DHT22;9573;50.948;11.600;2022-09-02T04:10:08;10.00;99.90
18882;DHT22;9573;50.948;11.600;2022-09-02T04:12:37;10.00;99.90
18882;DHT22;9573;50.948;11.600;2022-09-02T04:15:07;10.00;99.90
18882;DHT22;9573;50.948;11.600;2022-09-02T04:17:36;10.00;99.90
18882;DHT22;9573;50.948;11.600;2022-09-02T04:20:05;10.00;99.90
18882;DHT22;9573;50.948;11.600;2022-09-02T04:22:34;10.00;99.90
18882;DHT22;9573;50.948;11.600;2022-09-02T04:25:02;10.10;99.90
18882;DHT22;9573;50.948;11.600;2022-09-02T04:27:31;10.00;99.90
18882;DHT22;9573;50.948;11.600;2022-09-02T04:30:00;10.00;99.90
18882;DHT22;9573;50.948;11.600;2022-09-02T04:32:27;10.00;99.90
18882;DHT22;9573;50.948;11.600;2022-09-02T04:34:54;10.00;99.90
18882;DHT22;9573;50.948;11.600;2022-09-02T04:37:21;10.00;99.90
18882;DHT22;9573;50.948;11.600;2022-09-02T04:39:48;10.00;99.90
18882;DHT22;9573;50.948;11.600;2022-09-02T04:42:17;10.00;99.90
18882;DHT22;9573;50.948;11.600;2022-09-02T04:44:44;10.10;99.90
18882;DHT22;9573;50.948;11.600;2022-09-02T04:47:13;10.10;99.90
18882;DHT22;9573;50.948;11.600;2022-09-02T04:49:40;10.20;99.90
18882;DHT22;9573;50.948;11.600;2022-09-02T04:52:08;10.20;99.90
18882;DHT22;9573;50.948;11.600;2022-09-02T04:54:36;10.20;99.90
18882;DHT22;9573;50.948;11.600;2022-09-02T04:57:03;10.30;99.90
18882;DHT22;9573;50.948;11.600;2022-09-02T04:59:31;10.40;99.90
18882;DHT22;9573;50.948;11.600;2022-09-02T05:02:01;10.40;99.90
18882;DHT22;9573;50.948;11.600;2022-09-02T05:04:29;10.50;99.90
18882;DHT22;9573;50.948;11.600;2022-09-02T05:06:57;10.50;99.90
18882;DHT22;9573;50.948;11.600;2022-09-02T05:09:26;10.60;99.90
18882;DHT22;9573;50.948;11.600;2022-09-02T05:11:53;10.70;99.90
18882;DHT22;9573;50.948;11.600;2022-09-02T05:14:22;10.80;99.90
18882;DHT22;9573;50.948;11.600;2022-09-02T05:16:51;10.90;99.90
18882;DHT22;9573;50.948;11.600;2022-09-02T05:19:20;11.00;99.90
18882;DHT22;9573;50.948;11.600;2022-09-02T05:21:50;11.10;99.90
18882;DHT22;9573;50.948;11.600;2022-09-02T05:24:20;11.20;99.90
18882;DHT22;9573;50.948;11.600;2022-09-02T05:26:48;11.30;99.90
18882;DHT22;9573;50.948;11.600;2022-09-02T05:29:16;11.40;99.90
18882;DHT22;9573;50.948;11.600;2022-09-02T05:31:45;11.40;99.90
18882;DHT22;9573;50.948;11.600;2022-09-02T05:34:13;11.60;99.90
18882;DHT22;9573;50.948;11.600;2022-09-02T05:36:41;11.70;99.90
18882;DHT22;9573;50.948;11.600;2022-09-02T05:39:10;11.80;99.90
18882;DHT22;9573;50.948;11.600;2022-09-02T05:41:37;13.00;99.90
18882;DHT22;9573;50.948;11.600;2022-09-02T05:44:04;16.10;99.90
18882;DHT22;9573;50.948;11.600;2022-09-02T05:46:33;18.80;99.90
18882;DHT22;9573;50.948;11.600;2022-09-02T05:49:00;20.80;99.90
18882;DHT22;9573;50.948;11.600;2022-09-02T05:51:43;22.10;99.90
18882;DHT22;9573;50.948;11.600;2022-09-02T05:54:14;23.40;99.90
18882;DHT22;9573;50.948;11.600;2022-09-02T05:56:44;24.40;99.90
18882;DHT22;9573;50.948;11.600;2022-09-02T05:59:13;25.10;99.90
18882;DHT22;9573;50.948;11.600;2022-09-02T06:01:41;25.90;99.90
18882;DHT22;9573;50.948;11.600;2022-09-02T06:04:09;27.00;99.10
18882;DHT22;9573;50.948;11.600;2022-09-02T06:06:36;28.20;94.40
18882;DHT22;9573;50.948;11.600;2022-09-02T06:09:04;28.60;90.80
18882;DHT22;9573;50.948;11.600;2022-09-02T06:11:34;28.80;87.70
18882;DHT22;9573;50.948;11.600;2022-09-02T06:14:04;29.10;84.80
18882;DHT22;9573;50.948;11.600;2022-09-02T06:16:33;29.30;81.50
18882;DHT22;9573;50.948;11.600;2022-09-02T06:19:01;29.40;79.90
18882;DHT22;9573;50.948;11.600;2022-09-02T06:21:30;29.80;76.90
18882;DHT22;9573;50.948;11.600;2022-09-02T06:23:57;29.90;74.80
18882;DHT22;9573;50.948;11.600;2022-09-02T06:26:25;30.20;72.80
18882;DHT22;9573;50.948;11.600;2022-09-02T06:28:54;30.70;71.50
18882;DHT22;9573;50.948;11.600;2022-09-02T06:31:22;31.00;69.80
18882;DHT22;9573;50.948;11.600;2022-09-02T06:33:51;31.60;68.10
18882;DHT22;9573;50.948;11.600;2022-09-02T06:36:20;31.90;64.60
18882;DHT22;9573;50.948;11.600;2022-09-02T06:38:50;31.80;64.20
18882;DHT22;9573;50.948;11.600;2022-09-02T06:41:20;32.20;64.20
18882;DHT22;9573;50.948;11.600;2022-09-02T06:43:49;33.00;62.60
18882;DHT22;9573;50.948;11.600;2022-09-02T06:46:19;34.10;60.30
18882;DHT22;9573;50.948;11.600;2022-09-02T06:48:48;34.70;57.90
18882;DHT22;9573;50.948;11.600;2022-09-02T06:51:17;35.40;56.60
18882;DHT22;9573;50.948;11.600;2022-09-02T06:53:44;35.30;55.20
18882;DHT22;9573;50.948;11.600;2022-09-02T06:56:12;35.00;55.60
18882;DHT22;9573;50.948;11.600;2022-09-02T06:58:39;34.40;55.10
18882;DHT22;9573;50.948;11.600;2022-09-02T07:01:06;34.50;55.50
18882;DHT22;9573;50.948;11.600;2022-09-02T07:03:35;35.00;55.20
18882;DHT22;9573;50.948;11.600;2022-09-02T07:06:20;35.90;53.60
18882;DHT22;9573;50.948;11.600;2022-09-02T07:08:47;36.90;51.90
18882;DHT22;9573;50.948;11.600;2022-09-02T07:11:17;37.50;50.30
18882;DHT22;9573;50.948;11.600;2022-09-02T07:13:46;36.70;50.70
18882;DHT22;9573;50.948;11.600;2022-09-02T07:16:14;33.60;54.30
18882;DHT22;9573;50.948;11.600;2022-09-02T07:18:43;30.80;58.10
18882;DHT22;9573;50.948;11.600;2022-09-02T07:21:11;31.60;57.40
18882;DHT22;9573;50.948;11.600;2022-09-02T07:23:39;33.40;56.00
18882;DHT22;9573;50.948;11.600;2022-09-02T07:26:11;35.00;53.60
18882;DHT22;9573;50.948;11.600;2022-09-02T07:28:38;35.60;52.40
18882;DHT22;9573;50.948;11.600;2022-09-02T07:31:07;35.10;52.60
18882;DHT22;9573;50.948;11.600;2022-09-02T07:33:35;36.20;51.40
18882;DHT22;9573;50.948;11.600;2022-09-02T07:36:04;37.00;50.20
18882;DHT22;9573;50.948;11.600;2022-09-02T07:38:35;37.80;49.40
18882;DHT22;9573;50.948;11.600;2022-09-02T07:41:03;39.00;48.20
18882;DHT22;9573;50.948;11.600;2022-09-02T07:43:31;39.20;47.40
18882;DHT22;9573;50.948;11.600;2022-09-02T07:45:59;38.90;46.80
18882;DHT22;9573;50.948;11.600;2022-09-02T07:48:28;38.90;47.10
18882;DHT22;9573;50.948;11.600;2022-09-02T07:50:56;39.10;46.00
18882;DHT22;9573;50.948;11.600;2022-09-02T07:53:24;38.70;46.10
18882;DHT22;9573;50.948;11.600;2022-09-02T07:55:52;39.00;46.50
18882;DHT22;9573;50.948;11.600;2022-09-02T07:58:20;39.70;45.90
18882;DHT22;9573;50.948;11.600;2022-09-02T08:00:49;40.50;44.50
18882;DHT22;9573;50.948;11.600;2022-09-02T08:03:17;40.50;43.60
18882;DHT22;9573;50.948;11.600;2022-09-02T08:05:45;40.20;44.60
18882;DHT22;9573;50.948;11.600;2022-09-02T08:08:14;40.70;44.40
18882;DHT22;9573;50.948;11.600;2022-09-02T08:10:46;41.40;43.60
18882;DHT22;9573;50.948;11.600;2022-09-02T08:13:13;41.90;42.70
18882;DHT22;9573;50.948;11.600;2022-09-02T08:15:42;42.70;42.00
18882;DHT22;9573;50.948;11.600;2022-09-02T08:18:09;42.90;41.10
18882;DHT22;9573;50.948;11.600;2022-09-02T08:20:37;42.80;41.00
18882;DHT22;9573;50.948;11.600;2022-09-02T08:23:04;42.70;41.00
18882;DHT22;9573;50.948;11.600;2022-09-02T08:25:33;42.50;41.50
18882;DHT22;9573;50.948;11.600;2022-09-02T08:28:02;42.90;41.00
18882;DHT22;9573;50.948;11.600;2022-09-02T08:30:29;43.30;40.20
18882;DHT22;9573;50.948;11.600;2022-09-02T08:32:57;43.50;40.00
18882;DHT22;9573;50.948;11.600;2022-09-02T08:35:24;43.30;39.80
18882;DHT22;9573;50.948;11.600;2022-09-02T08:37:51;43.20;40.40
18882;DHT22;9573;50.948;11.600;2022-09-02T08:40:20;43.30;40.10
18882;DHT22;9573;50.948;11.600;2022-09-02T08:42:51;43.50;40.00
18882;DHT22;9573;50.948;11.600;2022-09-02T08:45:24;43.70;39.60
18882;DHT22;9573;50.948;11.600;2022-09-02T08:48:01;43.40;39.50
18882;DHT22;9573;50.948;11.600;2022-09-02T08:50:31;43.10;40.00
18882;DHT22;9573;50.948;11.600;2022-09-02T08:53:03;42.90;40.00
18882;DHT22;9573;50.948;11.600;2022-09-02T08:55:41;42.90;40.10
18882;DHT22;9573;50.948;11.600;2022-09-02T08:58:14;43.00;39.80
18882;DHT22;9573;50.948;11.600;2022-09-02T09:00:49;43.30;39.70
18882;DHT22;9573;50.948;11.600;2022-09-02T09:03:24;43.30;39.20
18882;DHT22;9573;50.948;11.600;2022-09-02T09:06:00;43.10;38.70
18882;DHT22;9573;50.948;11.600;2022-09-02T09:08:36;43.30;38.90
18882;DHT22;9573;50.948;11.600;2022-09-02T09:11:12;43.50;38.40
18882;DHT22;9573;50.948;11.600;2022-09-02T09:14:03;43.20;39.10
18882;DHT22;9573;50.948;11.600;2022-09-02T09:16:41;43.30;38.50
18882;DHT22;9573;50.948;11.600;2022-09-02T09:19:12;43.00;38.70
18882;DHT22;9573;50.948;11.600;2022-09-02T09:21:42;43.10;38.20
18882;DHT22;9573;50.948;11.600;2022-09-02T09:24:20;42.90;38.20
18882;DHT22;9573;50.948;11.600;2022-09-02T09:26:52;43.00;38.20
18882;DHT22;9573;50.948;11.600;2022-09-02T09:29:20;43.00;36.50
18882;DHT22;9573;50.948;11.600;2022-09-02T09:31:55;43.20;35.80
18882;DHT22;9573;50.948;11.600;2022-09-02T09:34:23;43.30;35.10
18882;DHT22;9573;50.948;11.600;2022-09-02T09:36:52;43.00;36.20
18882;DHT22;9573;50.948;11.600;2022-09-02T09:39:23;42.60;36.20
18882;DHT22;9573;50.948;11.600;2022-09-02T09:41:52;42.30;36.70
18882;DHT22;9573;50.948;11.600;2022-09-02T09:44:41;41.80;35.90
18882;DHT22;9573;50.948;11.600;2022-09-02T09:47:14;41.20;35.90
18882;DHT22;9573;50.948;11.600;2022-09-02T09:49:45;40.80;36.10
18882;DHT22;9573;50.948;11.600;2022-09-02T09:52:22;40.60;35.80
18882;DHT22;9573;50.948;11.600;2022-09-02T09:55:13;40.70;36.00
18882;DHT22;9573;50.948;11.600;2022-09-02T09:57:43;40.60;35.90
18882;DHT22;9573;50.948;11.600;2022-09-02T10:00:16;40.70;35.50
18882;DHT22;9573;50.948;11.600;2022-09-02T10:02:49;40.00;36.20
18882;DHT22;9573;50.948;11.600;2022-09-02T10:05:29;39.80;36.30
18882;DHT22;9573;50.948;11.600;2022-09-02T10:07:59;39.70;36.60
18882;DHT22;9573;50.948;11.600;2022-09-02T10:10:29;39.40;36.40
18882;DHT22;9573;50.948;11.600;2022-09-02T10:13:01;39.30;36.70
18882;DHT22;9573;50.948;11.600;2022-09-02T10:15:53;39.40;36.70
18882;DHT22;9573;50.948;11.600;2022-09-02T10:18:37;39.20;36.80
18882;DHT22;9573;50.948;11.600;2022-09-02T10:21:10;39.00;37.20
18882;DHT22;9573;50.948;11.600;2022-09-02T10:23:47;38.50;37.10
18882;DHT22;9573;50.948;11.600;2022-09-02T10:26:24;38.90;37.50
18882;DHT22;9573;50.948;11.600;2022-09-02T10:32:22;38.70;36.50
18882;DHT22;9573;50.948;11.600;2022-09-02T10:35:03;37.30;37.50
18882;DHT22;9573;50.948;11.600;2022-09-02T10:37:42;36.90;38.80
18882;DHT22;9573;50.948;11.600;2022-09-02T10:40:27;36.90;38.70
18882;DHT22;9573;50.948;11.600;2022-09-02T10:43:03;37.40;38.40
18882;DHT22;9573;50.948;11.600;2022-09-02T10:45:35;37.60;38.10
18882;DHT22;9573;50.948;11.600;2022-09-02T10:48:27;37.60;38.10
18882;DHT22;9573;50.948;11.600;2022-09-02T10:51:05;37.60;38.10
18882;DHT22;9573;50.948;11.600;2022-09-02T10:53:42;36.90;38.90
18882;DHT22;9573;50.948;11.600;2022-09-02T10:56:17;35.20;40.10
18882;DHT22;9573;50.948;11.600;2022-09-02T10:58:51;34.80;41.40
18882;DHT22;9573;50.948;11.600;2022-09-02T11:01:24;34.90;41.50
18882;DHT22;9573;50.948;11.600;2022-09-02T11:04:01;33.90;42.20
18882;DHT22;9573;50.948;11.600;2022-09-02T11:06:37;32.30;44.10
18882;DHT22;9573;50.948;11.600;2022-09-02T11:09:07;30.90;46.10
18882;DHT22;9573;50.948;11.600;2022-09-02T11:11:40;29.50;47.80
18882;DHT22;9573;50.948;11.600;2022-09-02T11:14:16;28.90;48.90
18882;DHT22;9573;50.948;11.600;2022-09-02T11:16:50;28.20;50.10
18882;DHT22;9573;50.948;11.600;2022-09-02T11:19:26;27.60;51.10
18882;DHT22;9573;50.948;11.600;2022-09-02T11:22:02;27.10;51.90
18882;DHT22;9573;50.948;11.600;2022-09-02T11:24:38;26.70;52.60
18882;DHT22;9573;50.948;11.600;2022-09-02T11:27:14;26.50;52.80
18882;DHT22;9573;50.948;11.600;2022-09-02T11:29:53;26.50;53.10
18882;DHT22;9573;50.948;11.600;2022-09-02T11:32:30;26.70;52.40
18882;DHT22;9573;50.948;11.600;2022-09-02T11:35:06;27.30;51.40
18882;DHT22;9573;50.948;11.600;2022-09-02T11:37:42;27.30;50.80
18882;DHT22;9573;50.948;11.600;2022-09-02T11:40:16;26.70;51.60
18882;DHT22;9573;50.948;11.600;2022-09-02T11:42:55;26.60;52.10
18882;DHT22;9573;50.948;11.600;2022-09-02T11:45:52;28.20;50.90
18882;DHT22;9573;50.948;11.600;2022-09-02T11:52:06;27.50;50.70
18882;DHT22;9573;50.948;11.600;2022-09-02T11:54:40;28.00;51.30
18882;DHT22;9573;50.948;11.600;2022-09-02T11:57:12;27.60;51.30
18882;DHT22;9573;50.948;11.600;2022-09-02T12:00:04;27.30;51.60
18882;DHT22;9573;50.948;11.600;2022-09-02T12:02:39;27.20;51.20
18882;DHT22;9573;50.948;11.600;2022-09-02T12:05:45;27.10;51.60
18882;DHT22;9573;50.948;11.600;2022-09-02T12:11:46;26.50;52.10
18882;DHT22;9573;50.948;11.600;2022-09-02T12:17:45;25.50;54.70
18882;DHT22;9573;50.948;11.600;2022-09-02T12:21:12;25.60;54.10
18882;DHT22;9573;50.948;11.600;2022-09-02T12:24:06;26.10;53.80
18882;DHT22;9573;50.948;11.600;2022-09-02T12:27:21;26.20;53.40
18882;DHT22;9573;50.948;11.600;2022-09-02T12:29:50;26.40;53.70
18882;DHT22;9573;50.948;11.600;2022-09-02T12:35:51;27.20;52.70
18882;DHT22;9573;50.948;11.600;2022-09-02T12:38:35;27.10;52.90
18882;DHT22;9573;50.948;11.600;2022-09-02T12:41:25;26.80;53.00
18882;DHT22;9573;50.948;11.600;2022-09-02T12:44:17;26.60;53.60
18882;DHT22;9573;50.948;11.600;2022-09-02T12:47:00;26.40;53.40
18882;DHT22;9573;50.948;11.600;2022-09-02T12:49:45;26.60;54.20
18882;DHT22;9573;50.948;11.600;2022-09-02T12:52:38;26.60;53.70
18882;DHT22;9573;50.948;11.600;2022-09-02T12:55:15;26.40;53.50
18882;DHT22;9573;50.948;11.600;2022-09-02T12:57:46;26.10;53.60
18882;DHT22;9573;50.948;11.600;2022-09-02T13:00:29;26.10;54.10
18882;DHT22;9573;50.948;11.600;2022-09-02T13:03:20;26.30;53.60
18882;DHT22;9573;50.948;11.600;2022-09-02T13:05:58;26.20;53.60
18882;DHT22;9573;50.948;11.600;2022-09-02T13:08:58;26.20;54.40
18882;DHT22;9573;50.948;11.600;2022-09-02T13:11:47;26.20;54.10
18882;DHT22;9573;50.948;11.600;2022-09-02T13:17:47;25.60;54.60
18882;DHT22;9573;50.948;11.600;2022-09-02T13:24:08;25.50;55.50
18882;DHT22;9573;50.948;11.600;2022-09-02T13:30:12;25.50;54.60
18882;DHT22;9573;50.948;11.600;2022-09-02T13:32:42;25.50;54.90
18882;DHT22;9573;50.948;11.600;2022-09-02T13:35:17;25.30;55.10
18882;DHT22;9573;50.948;11.600;2022-09-02T13:37:53;25.30;55.20
18882;DHT22;9573;50.948;11.600;2022-09-02T13:40:25;25.30;54.80
18882;DHT22;9573;50.948;11.600;2022-09-02T13:42:55;25.20;54.40
18882;DHT22;9573;50.948;11.600;2022-09-02T13:45:24;25.00;54.90
18882;DHT22;9573;50.948;11.600;2022-09-02T13:47:55;25.10;55.00
18882;DHT22;9573;50.948;11.600;2022-09-02T13:50:27;25.10;55.40
18882;DHT22;9573;50.948;11.600;2022-09-02T13:52:57;25.10;54.80
18882;DHT22;9573;50.948;11.600;2022-09-02T13:55:27;25.00;54.70
18882;DHT22;9573;50.948;11.600;2022-09-02T13:57:58;25.00;54.80
18882;DHT22;9573;50.948;11.600;2022-09-02T14:00:31;24.90;54.80
18882;DHT22;9573;50.948;11.600;2022-09-02T14:03:04;24.90;54.80
18882;DHT22;9573;50.948;11.600;2022-09-02T14:05:34;24.90;55.20
18882;DHT22;9573;50.948;11.600;2022-09-02T14:08:06;24.90;55.50
18882;DHT22;9573;50.948;11.600;2022-09-02T14:10:39;24.80;54.90
18882;DHT22;9573;50.948;11.600;2022-09-02T14:13:08;24.90;55.00
18882;DHT22;9573;50.948;11.600;2022-09-02T14:15:36;24.70;55.40
18882;DHT22;9573;50.948;11.600;2022-09-02T14:18:09;24.40;55.30
18882;DHT22;9573;50.948;11.600;2022-09-02T14:20:55;24.20;55.60
18882;DHT22;9573;50.948;11.600;2022-09-02T14:23:25;24.10;56.10
18882;DHT22;9573;50.948;11.600;2022-09-02T14:25:55;24.10;56.00
18882;DHT22;9573;50.948;11.600;2022-09-02T14:28:24;24.00;55.50
18882;DHT22;9573;50.948;11.600;2022-09-02T14:30:55;23.90;55.70
18882;DHT22;9573;50.948;11.600;2022-09-02T14:33:38;23.90;56.10
18882;DHT22;9573;50.948;11.600;2022-09-02T14:36:08;23.80;56.00
18882;DHT22;9573;50.948;11.600;2022-09-02T14:38:49;23.80;56.00
18882;DHT22;9573;50.948;11.600;2022-09-02T14:41:21;23.80;55.80
18882;DHT22;9573;50.948;11.600;2022-09-02T14:43:52;23.60;56.40
18882;DHT22;9573;50.948;11.600;2022-09-02T14:46:25;23.70;56.30
18882;DHT22;9573;50.948;11.600;2022-09-02T14:48:58;23.50;56.90
18882;DHT22;9573;50.948;11.600;2022-09-02T14:51:33;23.40;56.80
18882;DHT22;9573;50.948;11.600;2022-09-02T14:54:02;23.30;57.30
18882;DHT22;9573;50.948;11.600;2022-09-02T14:56:48;23.20;57.30
18882;DHT22;9573;50.948;11.600;2022-09-02T14:59:16;23.10;57.40
18882;DHT22;9573;50.948;11.600;2022-09-02T15:01:46;22.90;58.00
18882;DHT22;9573;50.948;11.600;2022-09-02T15:04:17;22.80;58.70
18882;DHT22;9573;50.948;11.600;2022-09-02T15:06:45;22.70;58.70
18882;DHT22;9573;50.948;11.600;2022-09-02T15:09:14;22.70;58.70
18882;DHT22;9573;50.948;11.600;2022-09-02T15:11:43;22.80;58.70
18882;DHT22;9573;50.948;11.600;2022-09-02T15:14:11;22.80;58.70
18882;DHT22;9573;50.948;11.600;2022-09-02T15:16:39;22.70;58.90
18882;DHT22;9573;50.948;11.600;2022-09-02T15:19:06;22.70;58.90
18882;DHT22;9573;50.948;11.600;2022-09-02T15:21:34;22.80;59.10
18882;DHT22;9573;50.948;11.600;2022-09-02T15:24:02;22.70;59.30
18882;DHT22;9573;50.948;11.600;2022-09-02T15:26:29;22.60;59.50
18882;DHT22;9573;50.948;11.600;2022-09-02T15:28:56;22.40;59.60
18882;DHT22;9573;50.948;11.600;2022-09-02T15:31:23;22.30;60.10
18882;DHT22;9573;50.948;11.600;2022-09-02T15:33:51;22.40;60.30
18882;DHT22;9573;50.948;11.600;2022-09-02T15:36:19;22.30;60.70
18882;DHT22;9573;50.948;11.600;2022-09-02T15:38:49;22.30;61.00
18882;DHT22;9573;50.948;11.600;2022-09-02T15:41:21;22.30;61.20
18882;DHT22;9573;50.948;11.600;2022-09-02T15:43:50;22.20;61.00
18882;DHT22;9573;50.948;11.600;2022-09-02T15:46:21;22.20;61.30
18882;DHT22;9573;50.948;11.600;2022-09-02T15:48:50;22.30;61.10
18882;DHT22;9573;50.948;11.600;2022-09-02T15:51:20;22.20;61.30
18882;DHT22;9573;50.948;11.600;2022-09-02T15:53:54;22.30;61.40
18882;DHT22;9573;50.948;11.600;2022-09-02T15:56:23;22.30;61.60
18882;DHT22;9573;50.948;11.600;2022-09-02T15:58:54;22.40;61.30
18882;DHT22;9573;50.948;11.600;2022-09-02T16:01:27;22.40;61.40
18882;DHT22;9573;50.948;11.600;2022-09-02T16:03:55;22.40;61.50
18882;DHT22;9573;50.948;11.600;2022-09-02T16:06:24;22.30;61.30
18882;DHT22;9573;50.948;11.600;2022-09-02T16:08:51;22.30;61.70
18882;DHT22;9573;50.948;11.600;2022-09-02T16:11:20;22.40;61.80
18882;DHT22;9573;50.948;11.600;2022-09-02T16:13:48;22.30;61.70
18882;DHT22;9573;50.948;11.600;2022-09-02T16:16:16;22.20;62.70
18882;DHT22;9573;50.948;11.600;2022-09-02T16:18:47;22.10;62.30
18882;DHT22;9573;50.948;11.600;2022-09-02T16:21:15;22.00;62.70
18882;DHT22;9573;50.948;11.600;2022-09-02T16:23:43;21.90;62.60
18882;DHT22;9573;50.948;11.600;2022-09-02T16:26:13;21.80;63.20